createdAt,value
2019-05-06T00:00:10.792Z,1008.35
2019-05-06T00:01:10.264Z,1008.31
2019-05-06T00:02:09.745Z,1008.34
2019-05-06T00:03:09.206Z,1008.32
2019-05-06T00:04:08.729Z,1008.39
2019-05-06T00:05:08.342Z,1008.26
2019-05-06T00:06:07.858Z,1008.43
2019-05-06T00:07:07.351Z,1008.41
2019-05-06T00:08:08.644Z,1008.29
2019-05-06T00:09:09.255Z,1008.29
2019-05-06T00:10:09.888Z,1008.40
2019-05-06T00:11:08.762Z,1008.34
2019-05-06T00:12:10.030Z,1008.40
2019-05-06T00:13:08.980Z,1008.32
2019-05-06T00:14:08.465Z,1008.37
2019-05-06T00:15:07.974Z,1008.36
2019-05-06T00:16:07.584Z,1008.32
2019-05-06T00:17:07.034Z,1008.35
2019-05-06T00:18:08.408Z,1008.32
2019-05-06T00:19:09.061Z,1008.30
2019-05-06T00:20:07.909Z,1008.32
2019-05-06T00:21:07.392Z,1008.37
2019-05-06T00:22:07.071Z,1008.40
2019-05-06T00:23:06.488Z,1008.39
2019-05-06T00:24:06.044Z,1008.38
2019-05-06T00:25:05.504Z,1008.25
2019-05-06T00:26:04.980Z,1008.45
2019-05-06T00:27:04.867Z,1008.35
2019-05-06T00:28:06.034Z,1008.35
2019-05-06T00:29:04.471Z,1008.42
2019-05-06T00:30:04.467Z,1008.46
2019-05-06T00:31:10.430Z,1008.36
2019-05-06T00:32:04.281Z,1008.43
2019-05-06T00:33:01.524Z,1008.40
2019-05-06T00:34:01.055Z,1008.40
2019-05-06T00:35:00.706Z,1008.41
2019-05-06T00:36:01.917Z,1008.42
2019-05-06T00:37:00.825Z,1008.41
2019-05-06T00:38:00.606Z,1008.39
2019-05-06T00:38:59.920Z,1008.41
2019-05-06T00:39:59.470Z,1008.46
2019-05-06T00:40:58.918Z,1008.53
2019-05-06T00:41:58.444Z,1008.46
2019-05-06T00:42:57.885Z,1008.40
2019-05-06T00:43:57.468Z,1008.45
2019-05-06T00:44:56.942Z,1008.48
2019-05-06T00:45:56.429Z,1008.48
2019-05-06T00:46:55.913Z,1008.49
2019-05-06T00:47:55.406Z,1008.51
2019-05-06T00:48:54.898Z,1008.47
2019-05-06T00:49:54.718Z,1008.46
2019-05-06T00:50:53.735Z,1008.50
2019-05-06T00:51:55.018Z,1008.51
2019-05-06T00:52:53.943Z,1008.53
2019-05-06T00:53:54.249Z,1008.60
2019-05-06T00:54:51.708Z,1008.52
2019-05-06T00:55:51.230Z,1008.48
2019-05-06T00:56:50.762Z,1008.51
2019-05-06T00:57:50.584Z,1008.50
2019-05-06T00:58:49.987Z,1008.59
2019-05-06T00:59:49.344Z,1008.59
2019-05-06T01:00:50.622Z,1008.57
2019-05-06T01:02:06.474Z,1008.56
2019-05-06T01:03:04.552Z,1008.56
2019-05-06T01:04:04.548Z,1008.60
2019-05-06T01:05:04.496Z,1008.61
2019-05-06T01:06:03.848Z,1008.59
2019-05-06T01:07:03.914Z,1008.56
2019-05-06T01:08:03.988Z,1008.66
2019-05-06T01:09:01.626Z,1008.56
2019-05-06T01:10:01.177Z,1008.61
2019-05-06T01:11:00.739Z,1008.59
2019-05-06T01:12:00.156Z,1008.59
2019-05-06T01:12:59.739Z,1008.59
2019-05-06T01:13:59.335Z,1008.61
2019-05-06T01:14:58.741Z,1008.63
2019-05-06T01:15:58.289Z,1008.71
2019-05-06T01:16:57.785Z,1008.73
2019-05-06T01:17:57.363Z,1008.69
2019-05-06T01:18:56.976Z,1008.71
2019-05-06T01:19:56.376Z,1008.61
2019-05-06T01:20:55.832Z,1008.68
2019-05-06T01:22:02.040Z,1008.70
2019-05-06T01:24:19.859Z,1008.69
2019-05-06T01:25:17.685Z,1008.65
2019-05-06T01:26:17.084Z,1008.64
2019-05-06T01:27:16.484Z,1008.72
2019-05-06T01:28:15.946Z,1008.70
2019-05-06T01:29:15.473Z,1008.73
2019-05-06T01:30:14.994Z,1008.71
2019-05-06T01:31:14.445Z,1008.70
2019-05-06T01:32:14.028Z,1008.74
2019-05-06T01:33:14.582Z,1008.68
2019-05-06T01:34:13.777Z,1008.69
2019-05-06T01:35:14.089Z,1008.66
2019-05-06T01:36:14.177Z,1008.67
2019-05-06T01:37:11.595Z,1008.74
2019-05-06T01:38:11.007Z,1008.67
2019-05-06T01:39:10.562Z,1008.72
2019-05-06T01:40:10.038Z,1008.66
2019-05-06T01:41:09.542Z,1008.68
2019-05-06T01:42:09.134Z,1008.62
2019-05-06T01:43:08.601Z,1008.71
2019-05-06T01:44:08.148Z,1008.66
2019-05-06T01:45:07.583Z,1008.68
2019-05-06T01:46:07.114Z,1008.69
2019-05-06T01:47:06.611Z,1008.68
2019-05-06T01:48:06.031Z,1008.69
2019-05-06T01:49:05.560Z,1008.74
2019-05-06T01:50:05.008Z,1008.69
2019-05-06T01:51:04.478Z,1008.69
2019-05-06T01:52:04.273Z,1008.69
2019-05-06T01:53:04.966Z,1008.68
2019-05-06T01:54:03.798Z,1008.68
2019-05-06T01:55:04.704Z,1008.70
2019-05-06T01:56:03.658Z,1008.68
2019-05-06T01:57:01.477Z,1008.67
2019-05-06T01:58:05.085Z,1008.68
2019-05-06T01:59:04.584Z,1008.67
2019-05-06T02:00:04.695Z,1008.70
2019-05-06T02:01:03.924Z,1008.73
2019-05-06T02:02:02.222Z,1008.68
2019-05-06T02:03:00.630Z,1008.71
2019-05-06T02:04:00.165Z,1008.70
2019-05-06T02:04:59.753Z,1008.75
2019-05-06T02:05:59.363Z,1008.73
2019-05-06T02:06:58.811Z,1008.77
2019-05-06T02:07:58.379Z,1008.78
2019-05-06T02:08:57.860Z,1008.74
2019-05-06T02:09:57.395Z,1008.71
2019-05-06T02:10:56.909Z,1008.73
2019-05-06T02:11:56.382Z,1008.74
2019-05-06T02:12:55.899Z,1008.72
2019-05-06T02:13:55.425Z,1008.75
2019-05-06T02:14:55.986Z,1008.72
2019-05-06T02:15:55.041Z,1008.81
2019-05-06T02:16:54.808Z,1008.71
2019-05-06T02:17:55.100Z,1008.71
2019-05-06T02:18:54.024Z,1008.71
2019-05-06T02:19:54.672Z,1008.71
2019-05-06T02:20:53.812Z,1008.69
2019-05-06T02:21:54.099Z,1008.75
2019-05-06T02:22:53.745Z,1008.65
2019-05-06T02:23:50.878Z,1008.81
2019-05-06T02:24:50.395Z,1008.81
2019-05-06T02:25:49.953Z,1008.78
2019-05-06T02:26:49.381Z,1008.80
2019-05-06T02:27:48.964Z,1008.85
2019-05-06T02:28:48.574Z,1008.80
2019-05-06T02:29:48.016Z,1008.78
2019-05-06T02:30:47.463Z,1008.82
2019-05-06T02:31:46.953Z,1008.75
2019-05-06T02:32:46.664Z,1008.79
2019-05-06T02:33:46.094Z,1008.81
2019-05-06T02:34:46.129Z,1008.86
2019-05-06T02:35:45.594Z,1008.83
2019-05-06T02:36:45.513Z,1008.81
2019-05-06T02:37:46.397Z,1008.85
2019-05-06T02:38:50.497Z,1008.87
2019-05-06T02:39:43.969Z,1008.88
2019-05-06T02:40:42.758Z,1008.81
2019-05-06T02:41:43.053Z,1008.81
2019-05-06T02:42:43.183Z,1008.82
2019-05-06T02:43:43.515Z,1008.81
2019-05-06T02:44:43.830Z,1008.78
2019-05-06T02:45:43.153Z,1008.82
2019-05-06T02:46:39.653Z,1008.75
2019-05-06T02:47:39.143Z,1008.74
2019-05-06T02:48:38.601Z,1008.82
2019-05-06T02:49:38.214Z,1008.82
2019-05-06T02:50:37.754Z,1008.77
2019-05-06T02:51:37.278Z,1008.73
2019-05-06T02:52:36.741Z,1008.80
2019-05-06T02:53:36.278Z,1008.84
2019-05-06T02:54:35.741Z,1008.76
2019-05-06T02:55:36.210Z,1008.82
2019-05-06T02:56:34.786Z,1008.82
2019-05-06T02:57:34.296Z,1008.81
2019-05-06T02:58:33.802Z,1008.82
2019-05-06T02:59:33.339Z,1008.79
2019-05-06T03:00:33.073Z,1008.80
2019-05-06T03:01:34.048Z,1008.81
2019-05-06T03:02:42.020Z,1008.91
2019-05-06T03:03:33.804Z,1008.83
2019-05-06T03:04:33.178Z,1008.80
2019-05-06T03:05:33.208Z,1008.82
2019-05-06T03:06:29.764Z,1008.87
2019-05-06T03:07:29.410Z,1008.82
2019-05-06T03:08:28.889Z,1008.84
2019-05-06T03:09:28.353Z,1008.87
2019-05-06T03:10:27.847Z,1008.92
2019-05-06T03:11:27.360Z,1008.87
2019-05-06T03:12:26.892Z,1008.85
2019-05-06T03:13:26.421Z,1008.86
2019-05-06T03:14:25.982Z,1008.81
2019-05-06T03:15:25.338Z,1008.85
2019-05-06T03:16:24.738Z,1008.83
2019-05-06T03:17:24.323Z,1008.88
2019-05-06T03:18:23.950Z,1008.90
2019-05-06T03:19:24.177Z,1008.83
2019-05-06T03:20:23.655Z,1008.87
2019-05-06T03:21:24.739Z,1008.86
2019-05-06T03:22:24.036Z,1008.90
2019-05-06T03:23:23.643Z,1008.81
2019-05-06T03:24:23.637Z,1008.81
2019-05-06T03:25:23.892Z,1008.81
2019-05-06T03:26:19.792Z,1008.85
2019-05-06T03:27:19.242Z,1008.77
2019-05-06T03:28:18.824Z,1008.80
2019-05-06T03:29:18.279Z,1008.82
2019-05-06T03:30:17.818Z,1008.82
2019-05-06T03:31:17.405Z,1008.83
2019-05-06T03:32:25.197Z,1008.82
2019-05-06T03:33:50.667Z,1008.86
2019-05-06T03:34:41.239Z,1008.82
2019-05-06T03:35:33.172Z,1008.89
2019-05-06T03:36:24.981Z,1008.89
2019-05-06T03:37:16.885Z,1008.85
2019-05-06T03:38:14.115Z,1008.87
2019-05-06T03:39:13.925Z,1008.76
2019-05-06T03:40:13.957Z,1008.82
2019-05-06T03:41:13.958Z,1008.87
2019-05-06T03:42:13.700Z,1008.91
2019-05-06T03:43:13.183Z,1008.91
2019-05-06T03:44:16.236Z,1008.90
2019-05-06T03:45:13.104Z,1008.96
2019-05-06T03:46:10.167Z,1008.99
2019-05-06T03:47:09.679Z,1009.00
2019-05-06T03:48:09.222Z,1008.95
2019-05-06T03:49:08.806Z,1008.94
2019-05-06T03:50:08.342Z,1008.95
2019-05-06T03:51:07.793Z,1009.02
2019-05-06T03:52:07.300Z,1008.97
2019-05-06T03:53:06.569Z,1009.01
2019-05-06T03:54:06.074Z,1009.02
2019-05-06T03:55:05.580Z,1008.95
2019-05-06T03:56:05.102Z,1009.06
2019-05-06T03:57:04.580Z,1009.02
2019-05-06T03:58:04.244Z,1009.03
2019-05-06T03:59:03.663Z,1008.99
2019-05-06T04:00:04.700Z,1009.08
2019-05-06T04:01:03.709Z,1009.05
2019-05-06T04:02:04.920Z,1009.02
2019-05-06T04:03:03.142Z,1009.07
2019-05-06T04:04:03.602Z,1009.17
2019-05-06T04:05:03.615Z,1009.09
2019-05-06T04:06:00.305Z,1009.08
2019-05-06T04:07:03.084Z,1009.14
2019-05-06T04:07:59.290Z,1009.11
2019-05-06T04:08:58.846Z,1009.13
2019-05-06T04:09:58.318Z,1009.14
2019-05-06T04:10:57.837Z,1009.13
2019-05-06T04:11:57.363Z,1009.10
2019-05-06T04:12:56.866Z,1009.10
2019-05-06T04:13:56.326Z,1009.16
2019-05-06T04:14:55.939Z,1009.10
2019-05-06T04:15:55.386Z,1009.16
2019-05-06T04:16:54.961Z,1009.10
2019-05-06T04:17:54.388Z,1009.18
2019-05-06T04:18:54.268Z,1009.17
2019-05-06T04:19:53.615Z,1009.18
2019-05-06T04:20:53.303Z,1009.13
2019-05-06T04:21:53.189Z,1009.19
2019-05-06T04:22:53.115Z,1009.20
2019-05-06T04:23:53.450Z,1009.14
2019-05-06T04:24:53.702Z,1009.17
2019-05-06T04:25:52.728Z,1009.17
2019-05-06T04:26:53.138Z,1009.17
2019-05-06T04:27:49.449Z,1009.30
2019-05-06T04:28:49.010Z,1009.20
2019-05-06T04:29:48.484Z,1009.27
2019-05-06T04:30:47.987Z,1009.27
2019-05-06T04:31:47.479Z,1009.28
2019-05-06T04:32:46.800Z,1009.25
2019-05-06T04:34:05.298Z,1009.27
2019-05-06T04:34:45.792Z,1009.19
2019-05-06T04:35:45.246Z,1009.23
2019-05-06T04:36:44.692Z,1009.36
2019-05-06T04:37:44.109Z,1009.29
2019-05-06T04:38:43.688Z,1009.31
2019-05-06T04:39:43.442Z,1009.29
2019-05-06T04:40:44.009Z,1009.40
2019-05-06T04:41:43.415Z,1009.35
2019-05-06T04:42:44.483Z,1009.33
2019-05-06T04:43:43.585Z,1009.41
2019-05-06T04:44:40.392Z,1009.33
2019-05-06T04:45:43.023Z,1009.32
2019-05-06T04:46:39.346Z,1009.40
2019-05-06T04:47:38.727Z,1009.40
2019-05-06T04:48:38.153Z,1009.34
2019-05-06T04:49:37.812Z,1009.39
2019-05-06T04:50:37.099Z,1009.39
2019-05-06T04:51:37.213Z,1009.44
2019-05-06T04:52:36.022Z,1009.39
2019-05-06T04:53:35.458Z,1009.44
2019-05-06T04:54:35.113Z,1009.47
2019-05-06T04:55:34.507Z,1009.44
2019-05-06T04:56:34.094Z,1009.47
2019-05-06T04:57:33.939Z,1009.51
2019-05-06T04:58:33.729Z,1009.56
2019-05-06T04:59:32.781Z,1009.48
2019-05-06T05:00:33.048Z,1009.54
2019-05-06T05:01:34.129Z,1009.49
2019-05-06T05:02:33.439Z,1009.56
2019-05-06T05:03:33.802Z,1009.55
2019-05-06T05:04:36.209Z,1009.58
2019-05-06T05:05:33.098Z,1009.57
2019-05-06T05:06:32.836Z,1009.66
2019-05-06T05:07:33.209Z,1009.47
2019-05-06T05:08:30.903Z,1009.63
2019-05-06T05:09:32.369Z,1009.57
2019-05-06T05:10:29.348Z,1009.63
2019-05-06T05:11:28.847Z,1009.69
2019-05-06T05:12:28.243Z,1009.66
2019-05-06T05:13:27.806Z,1009.64
2019-05-06T05:14:27.366Z,1009.66
2019-05-06T05:15:26.861Z,1009.68
2019-05-06T05:16:26.458Z,1009.65
2019-05-06T05:17:25.840Z,1009.68
2019-05-06T05:18:25.468Z,1009.69
2019-05-06T05:19:24.837Z,1009.74
2019-05-06T05:20:36.887Z,1009.56
2019-05-06T05:21:24.027Z,1009.75
2019-05-06T05:22:23.631Z,1009.78
2019-05-06T05:23:23.267Z,1009.78
2019-05-06T05:24:23.516Z,1009.82
2019-05-06T05:25:22.308Z,1009.79
2019-05-06T05:26:22.506Z,1009.90
2019-05-06T05:27:21.970Z,1009.88
2019-05-06T05:28:22.317Z,1009.81
2019-05-06T05:29:20.327Z,1009.91
2019-05-06T05:30:21.899Z,1009.94
2019-05-06T05:31:19.496Z,1009.90
2019-05-06T05:32:19.058Z,1009.91
2019-05-06T05:33:18.566Z,1009.94
2019-05-06T05:34:18.055Z,1009.93
2019-05-06T05:35:17.485Z,1009.98
2019-05-06T05:36:17.164Z,1009.91
2019-05-06T05:37:16.632Z,1009.93
2019-05-06T05:38:16.220Z,1010.04
2019-05-06T05:39:15.541Z,1009.98
2019-05-06T05:40:15.044Z,1009.95
2019-05-06T05:41:14.463Z,1010.02
2019-05-06T05:42:13.971Z,1010.02
2019-05-06T05:43:13.460Z,1010.07
2019-05-06T05:44:12.987Z,1010.01
2019-05-06T05:45:14.229Z,1010.11
2019-05-06T05:46:13.107Z,1009.98
2019-05-06T05:47:12.711Z,1010.03
2019-05-06T05:48:12.446Z,1010.06
2019-05-06T05:49:12.064Z,1010.05
2019-05-06T05:50:13.273Z,1010.04
2019-05-06T05:51:12.768Z,1010.11
2019-05-06T05:52:12.530Z,1010.12
2019-05-06T05:53:11.967Z,1010.12
2019-05-06T05:54:09.343Z,1010.10
2019-05-06T05:55:12.119Z,1010.05
2019-05-06T05:56:12.338Z,1010.06
2019-05-06T05:57:11.907Z,1010.07
2019-05-06T05:58:09.725Z,1010.14
2019-05-06T05:59:09.280Z,1010.06
2019-05-06T06:00:08.883Z,1010.04
2019-05-06T06:01:08.306Z,1010.12
2019-05-06T06:02:07.899Z,1010.04
2019-05-06T06:03:07.528Z,1010.04
2019-05-06T06:04:07.000Z,1010.16
2019-05-06T06:05:06.532Z,1010.10
2019-05-06T06:06:06.177Z,1010.07
2019-05-06T06:07:05.656Z,1010.04
2019-05-06T06:08:05.148Z,1010.15
2019-05-06T06:09:04.656Z,1010.08
2019-05-06T06:10:04.203Z,1010.11
2019-05-06T06:11:04.364Z,1010.16
2019-05-06T06:12:03.239Z,1010.18
2019-05-06T06:13:02.832Z,1010.16
2019-05-06T06:14:02.978Z,1010.17
2019-05-06T06:15:02.276Z,1010.14
2019-05-06T06:16:02.852Z,1010.13
2019-05-06T06:17:09.178Z,1010.21
2019-05-06T06:18:07.487Z,1010.22
2019-05-06T06:19:07.028Z,1010.13
2019-05-06T06:20:06.483Z,1010.14
2019-05-06T06:21:17.641Z,1010.17
2019-05-06T06:22:05.565Z,1010.11
2019-05-06T06:23:05.172Z,1010.22
2019-05-06T06:24:04.667Z,1010.22
2019-05-06T06:25:04.553Z,1010.19
2019-05-06T06:26:04.097Z,1010.17
2019-05-06T06:27:03.367Z,1010.17
2019-05-06T06:28:02.827Z,1010.14
2019-05-06T06:29:03.301Z,1010.12
2019-05-06T06:30:02.528Z,1010.14
2019-05-06T06:31:03.063Z,1010.19
2019-05-06T06:32:03.008Z,1010.13
2019-05-06T06:33:03.386Z,1010.13
2019-05-06T06:34:02.085Z,1010.16
2019-05-06T06:35:10.495Z,1010.15
2019-05-06T06:36:02.753Z,1010.11
2019-05-06T06:37:02.477Z,1010.20
2019-05-06T06:37:59.896Z,1010.12
2019-05-06T06:38:59.455Z,1010.08
2019-05-06T06:39:58.902Z,1010.12
2019-05-06T06:40:58.428Z,1010.14
2019-05-06T06:41:59.707Z,1010.15
2019-05-06T06:42:58.593Z,1010.17
2019-05-06T06:43:58.048Z,1010.13
2019-05-06T06:44:57.531Z,1010.08
2019-05-06T06:45:57.070Z,1010.17
2019-05-06T06:46:56.575Z,1010.14
2019-05-06T06:47:55.917Z,1010.15
2019-05-06T06:48:55.626Z,1010.18
2019-05-06T06:49:55.090Z,1010.17
2019-05-06T06:50:54.578Z,1010.16
2019-05-06T06:51:54.149Z,1010.21
2019-05-06T06:52:53.630Z,1010.12
2019-05-06T06:53:53.232Z,1010.08
2019-05-06T06:54:52.912Z,1010.06
2019-05-06T06:55:52.361Z,1010.13
2019-05-06T06:57:04.675Z,1010.13
2019-05-06T06:57:51.907Z,1010.12
2019-05-06T06:58:53.727Z,1010.09
2019-05-06T06:59:52.512Z,1010.09
2019-05-06T07:00:53.282Z,1010.08
2019-05-06T07:01:52.899Z,1010.03
2019-05-06T07:02:52.475Z,1010.04
2019-05-06T07:03:52.665Z,1010.08
2019-05-06T07:04:52.436Z,1010.08
2019-05-06T07:05:49.507Z,1010.06
2019-05-06T07:06:48.972Z,1010.06
2019-05-06T07:07:48.438Z,1010.06
2019-05-06T07:08:47.977Z,1010.08
2019-05-06T07:09:47.496Z,1010.15
2019-05-06T07:10:46.985Z,1010.14
2019-05-06T07:11:46.508Z,1010.16
2019-05-06T07:12:46.040Z,1010.08
2019-05-06T07:13:45.538Z,1010.03
2019-05-06T07:14:45.079Z,1010.09
2019-05-06T07:15:44.516Z,1010.13
2019-05-06T07:16:53.335Z,1010.15
2019-05-06T07:17:52.404Z,1010.14
2019-05-06T07:18:52.438Z,1010.14
2019-05-06T07:19:49.568Z,1010.13
2019-05-06T07:20:49.143Z,1010.14
2019-05-06T07:21:48.634Z,1010.22
2019-05-06T07:22:49.892Z,1010.14
2019-05-06T07:23:48.764Z,1010.17
2019-05-06T07:24:48.213Z,1010.19
2019-05-06T07:25:47.719Z,1010.17
2019-05-06T07:26:47.254Z,1010.20
2019-05-06T07:27:46.746Z,1010.26
2019-05-06T07:28:46.237Z,1010.24
2019-05-06T07:29:48.456Z,1010.29
2019-05-06T07:30:52.105Z,1010.21
2019-05-06T07:31:48.725Z,1010.18
2019-05-06T07:32:53.148Z,1010.21
2019-05-06T07:33:52.236Z,1010.14
2019-05-06T07:34:53.071Z,1010.22
2019-05-06T07:35:52.666Z,1010.19
2019-05-06T07:36:51.877Z,1010.14
2019-05-06T07:37:49.659Z,1010.15
2019-05-06T07:38:49.260Z,1010.12
2019-05-06T07:39:48.656Z,1010.16
2019-05-06T07:40:48.170Z,1010.17
2019-05-06T07:41:47.756Z,1010.20
2019-05-06T07:42:47.301Z,1010.22
2019-05-06T07:43:46.800Z,1010.28
2019-05-06T07:44:46.355Z,1010.23
2019-05-06T07:45:45.870Z,1010.26
2019-05-06T07:46:45.334Z,1010.28
2019-05-06T07:47:44.861Z,1010.29
2019-05-06T07:48:44.381Z,1010.33
2019-05-06T07:49:43.900Z,1010.34
2019-05-06T07:50:43.415Z,1010.29
2019-05-06T07:51:42.884Z,1010.24
2019-05-06T07:52:42.385Z,1010.22
2019-05-06T07:53:42.709Z,1010.34
2019-05-06T07:54:42.435Z,1010.22
2019-05-06T07:55:42.391Z,1010.27
2019-05-06T07:56:42.712Z,1010.19
2019-05-06T07:57:39.876Z,1010.25
2019-05-06T07:58:39.427Z,1010.31
2019-05-06T07:59:38.880Z,1010.21
2019-05-06T08:00:38.318Z,1010.21
2019-05-06T08:01:37.880Z,1010.28
2019-05-06T08:02:37.375Z,1010.22
2019-05-06T08:03:36.829Z,1010.32
2019-05-06T08:04:36.362Z,1010.30
2019-05-06T08:05:35.851Z,1010.26
2019-05-06T08:06:35.381Z,1010.28
2019-05-06T08:07:34.982Z,1010.28
2019-05-06T08:08:34.405Z,1010.29
2019-05-06T08:09:33.952Z,1010.23
2019-05-06T08:10:33.535Z,1010.31
2019-05-06T08:11:32.977Z,1010.30
2019-05-06T08:12:32.730Z,1010.33
2019-05-06T08:13:32.416Z,1010.35
2019-05-06T08:14:32.968Z,1010.35
2019-05-06T08:15:32.557Z,1010.33
2019-05-06T08:16:31.921Z,1010.28
2019-05-06T08:17:29.951Z,1010.30
2019-05-06T08:18:29.490Z,1010.28
2019-05-06T08:19:29.085Z,1010.28
2019-05-06T08:20:28.604Z,1010.25
2019-05-06T08:21:28.197Z,1010.28
2019-05-06T08:22:27.661Z,1010.27
2019-05-06T08:23:27.253Z,1010.33
2019-05-06T08:24:26.855Z,1010.32
2019-05-06T08:25:26.257Z,1010.31
2019-05-06T08:26:25.771Z,1010.27
2019-05-06T08:27:25.311Z,1010.31
2019-05-06T08:28:37.513Z,1010.28
2019-05-06T08:29:24.372Z,1010.30
2019-05-06T08:30:23.929Z,1010.31
2019-05-06T08:31:23.439Z,1010.34
2019-05-06T08:32:22.925Z,1010.28
2019-05-06T08:33:22.479Z,1010.33
2019-05-06T08:34:22.586Z,1010.27
2019-05-06T08:35:22.734Z,1010.27
2019-05-06T08:36:22.583Z,1010.32
2019-05-06T08:37:22.661Z,1010.32
2019-05-06T08:38:22.095Z,1010.23
2019-05-06T08:39:19.499Z,1010.25
2019-05-06T08:40:18.972Z,1010.21
2019-05-06T08:41:18.450Z,1010.25
2019-05-06T08:42:17.919Z,1010.21
2019-05-06T08:43:17.415Z,1010.21
2019-05-06T08:44:16.851Z,1010.23
2019-05-06T08:45:16.432Z,1010.18
2019-05-06T08:46:15.827Z,1010.20
2019-05-06T08:47:15.382Z,1010.20
2019-05-06T08:48:14.914Z,1010.27
2019-05-06T08:49:14.472Z,1010.20
2019-05-06T08:50:13.948Z,1010.19
2019-05-06T08:51:13.536Z,1010.18
2019-05-06T08:52:13.101Z,1010.12
2019-05-06T08:53:13.805Z,1010.20
2019-05-06T08:54:13.341Z,1010.11
2019-05-06T08:55:12.606Z,1010.14
2019-05-06T08:56:12.656Z,1010.19
2019-05-06T08:57:11.914Z,1010.21
2019-05-06T08:58:10.241Z,1010.14
2019-05-06T08:59:09.863Z,1010.20
2019-05-06T09:00:09.377Z,1010.11
2019-05-06T09:01:08.824Z,1010.07
2019-05-06T09:02:08.516Z,1010.12
2019-05-06T09:03:07.927Z,1010.12
2019-05-06T09:04:12.367Z,1010.20
2019-05-06T09:05:06.880Z,1010.12
2019-05-06T09:06:07.547Z,1010.07
2019-05-06T09:07:05.968Z,1010.11
2019-05-06T09:08:05.404Z,1010.15
2019-05-06T09:09:04.961Z,1010.11
2019-05-06T09:10:04.456Z,1010.15
2019-05-06T09:11:03.951Z,1010.11
2019-05-06T09:12:03.445Z,1010.04
2019-05-06T09:13:02.923Z,1010.13
2019-05-06T09:14:03.402Z,1010.03
2019-05-06T09:15:03.524Z,1010.03
2019-05-06T09:16:02.479Z,1010.03
2019-05-06T09:17:02.831Z,1009.96
2019-05-06T09:18:02.808Z,1010.00
2019-05-06T09:19:04.046Z,1010.09
2019-05-06T09:19:59.573Z,1010.10
2019-05-06T09:20:59.049Z,1010.11
2019-05-06T09:21:58.597Z,1010.09
2019-05-06T09:22:58.117Z,1010.17
2019-05-06T09:23:57.724Z,1010.18
2019-05-06T09:24:57.284Z,1010.08
2019-05-06T09:25:56.779Z,1010.11
2019-05-06T09:26:56.382Z,1010.07
2019-05-06T09:27:55.883Z,1010.09
2019-05-06T09:28:55.360Z,1010.13
2019-05-06T09:29:54.880Z,1010.18
2019-05-06T09:30:54.446Z,1010.08
2019-05-06T09:31:53.859Z,1010.04
2019-05-06T09:32:53.390Z,1010.16
2019-05-06T09:33:53.104Z,1010.13
2019-05-06T09:34:53.000Z,1010.11
2019-05-06T09:35:52.873Z,1010.09
2019-05-06T09:36:54.481Z,1010.09
2019-05-06T09:37:53.257Z,1010.03
2019-05-06T09:38:52.885Z,1010.13
2019-05-06T09:39:50.026Z,1010.11
2019-05-06T09:40:49.517Z,1010.08
2019-05-06T09:41:49.651Z,1010.03
2019-05-06T09:42:48.547Z,1010.08
2019-05-06T09:43:48.025Z,1010.15
2019-05-06T09:44:50.489Z,1010.09
2019-05-06T09:45:47.162Z,1010.04
2019-05-06T09:46:46.638Z,1010.08
2019-05-06T09:47:46.130Z,1010.11
2019-05-06T09:48:45.874Z,1010.07
2019-05-06T09:49:45.288Z,1010.03
2019-05-06T09:50:45.968Z,1010.02
2019-05-06T09:51:44.326Z,1010.10
2019-05-06T09:52:43.840Z,1010.01
2019-05-06T09:53:43.575Z,1009.92
2019-05-06T09:54:43.020Z,1010.04
2019-05-06T09:55:43.081Z,1010.05
2019-05-06T09:56:42.727Z,1010.06
2019-05-06T09:57:42.678Z,1010.01
2019-05-06T09:58:42.873Z,1010.05
2019-05-06T09:59:42.183Z,1009.99
2019-05-06T10:00:40.128Z,1009.96
2019-05-06T10:01:39.676Z,1010.00
2019-05-06T10:02:39.150Z,1010.03
2019-05-06T10:03:38.656Z,1010.03
2019-05-06T10:04:38.205Z,1009.95
2019-05-06T10:05:37.648Z,1010.00
2019-05-06T10:06:37.147Z,1010.05
2019-05-06T10:07:36.677Z,1010.03
2019-05-06T10:08:36.172Z,1010.00
2019-05-06T10:09:35.772Z,1010.06
2019-05-06T10:10:35.222Z,1010.03
2019-05-06T10:11:34.717Z,1009.97
2019-05-06T10:12:34.235Z,1010.02
2019-05-06T10:13:34.835Z,1009.94
2019-05-06T10:14:33.924Z,1010.00
2019-05-06T10:15:33.409Z,1009.91
2019-05-06T10:16:32.911Z,1009.95
2019-05-06T10:17:32.460Z,1009.95
2019-05-06T10:18:31.915Z,1009.87
2019-05-06T10:19:32.090Z,1009.86
2019-05-06T10:20:33.021Z,1009.88
2019-05-06T10:21:32.324Z,1009.97
2019-05-06T10:22:32.292Z,1009.87
2019-05-06T10:23:29.586Z,1009.92
2019-05-06T10:24:29.154Z,1009.87
2019-05-06T10:25:28.713Z,1009.90
2019-05-06T10:26:28.193Z,1009.87
2019-05-06T10:27:27.746Z,1009.83
2019-05-06T10:28:27.222Z,1009.84
2019-05-06T10:29:26.789Z,1009.87
2019-05-06T10:30:26.394Z,1009.83
2019-05-06T10:31:25.947Z,1009.79
2019-05-06T10:32:25.531Z,1009.74
2019-05-06T10:33:25.085Z,1009.75
2019-05-06T10:34:24.675Z,1009.77
2019-05-06T10:35:29.667Z,1009.69
2019-05-06T10:36:27.578Z,1009.84
2019-05-06T10:37:27.053Z,1009.71
2019-05-06T10:38:26.569Z,1009.78
2019-05-06T10:39:26.148Z,1009.66
2019-05-06T10:40:25.686Z,1009.71
2019-05-06T10:41:25.210Z,1009.75
2019-05-06T10:42:27.654Z,1009.73
2019-05-06T10:43:26.412Z,1009.76
2019-05-06T10:44:25.903Z,1009.72
2019-05-06T10:45:29.533Z,1009.65
2019-05-06T10:46:28.085Z,1009.73
2019-05-06T10:47:27.602Z,1009.74
2019-05-06T10:48:27.119Z,1009.74
2019-05-06T10:49:26.572Z,1009.79
2019-05-06T10:50:26.170Z,1009.77
2019-05-06T10:51:25.550Z,1009.76
2019-05-06T10:52:25.092Z,1009.81
2019-05-06T10:53:24.754Z,1009.78
2019-05-06T10:54:24.189Z,1009.80
2019-05-06T10:55:23.671Z,1009.79
2019-05-06T10:56:23.182Z,1009.80
2019-05-06T10:57:22.685Z,1009.88
2019-05-06T10:58:22.711Z,1009.79
2019-05-06T10:59:22.184Z,1009.85
2019-05-06T11:00:23.126Z,1009.91
2019-05-06T11:01:22.985Z,1009.88
2019-05-06T11:02:20.279Z,1009.86
2019-05-06T11:03:22.416Z,1009.91
2019-05-06T11:04:19.373Z,1009.87
2019-05-06T11:05:18.896Z,1009.88
2019-05-06T11:06:18.412Z,1009.83
2019-05-06T11:07:29.399Z,1009.83
2019-05-06T11:08:17.427Z,1009.80
2019-05-06T11:09:16.976Z,1009.86
2019-05-06T11:10:24.339Z,1009.86
2019-05-06T11:11:31.347Z,1009.77
2019-05-06T11:12:15.399Z,1009.74
2019-05-06T11:13:14.886Z,1009.80
2019-05-06T11:14:14.377Z,1009.78
2019-05-06T11:15:13.869Z,1009.69
2019-05-06T11:16:16.633Z,1009.67
2019-05-06T11:17:12.961Z,1009.73
2019-05-06T11:18:13.523Z,1009.76
2019-05-06T11:19:13.276Z,1009.70
2019-05-06T11:20:13.928Z,1009.67
2019-05-06T11:21:12.788Z,1009.71
2019-05-06T11:22:12.721Z,1009.68
2019-05-06T11:23:09.853Z,1009.71
2019-05-06T11:24:09.394Z,1009.69
2019-05-06T11:25:08.848Z,1009.67
2019-05-06T11:26:08.373Z,1009.70
2019-05-06T11:27:23.649Z,1009.68
2019-05-06T11:28:07.435Z,1009.66
2019-05-06T11:29:07.094Z,1009.67
2019-05-06T11:30:06.651Z,1009.68
2019-05-06T11:31:09.181Z,1009.59
2019-05-06T11:32:05.646Z,1009.58
2019-05-06T11:33:05.161Z,1009.60
2019-05-06T11:34:04.678Z,1009.59
2019-05-06T11:35:04.261Z,1009.60
2019-05-06T11:36:03.759Z,1009.58
2019-05-06T11:37:06.183Z,1009.59
2019-05-06T11:38:04.902Z,1009.52
2019-05-06T11:39:04.471Z,1009.60
2019-05-06T11:40:06.866Z,1009.53
2019-05-06T11:41:05.586Z,1009.57
2019-05-06T11:42:23.890Z,1009.53
2019-05-06T11:43:04.625Z,1009.56
2019-05-06T11:44:04.129Z,1009.52
2019-05-06T11:45:03.586Z,1009.49
2019-05-06T11:46:03.158Z,1009.46
2019-05-06T11:47:03.390Z,1009.41
2019-05-06T11:48:02.143Z,1009.51
2019-05-06T11:49:01.911Z,1009.52
2019-05-06T11:50:02.554Z,1009.44
2019-05-06T11:51:00.786Z,1009.43
2019-05-06T11:52:02.352Z,1009.47
2019-05-06T11:53:02.450Z,1009.51
2019-05-06T11:54:02.696Z,1009.49
2019-05-06T11:54:59.423Z,1009.50
2019-05-06T11:55:58.988Z,1009.52
2019-05-06T11:56:58.781Z,1009.54
2019-05-06T11:57:57.979Z,1009.45
2019-05-06T11:58:57.482Z,1009.52
2019-05-06T11:59:57.154Z,1009.55
2019-05-06T12:00:56.680Z,1009.50
2019-05-06T12:01:56.225Z,1009.51